sensor_id;sensor_type;location;lat;lon;timestamp;P1;durP1;ratioP1;P2;durP2;ratioP2
42742;SDS011;28397;44.552;-0.848;2023-04-12T00:02:06;19.83;;;4.95;;
42742;SDS011;28397;44.552;-0.848;2023-04-12T00:04:32;22.55;;;5.30;;
42742;SDS011;28397;44.552;-0.848;2023-04-12T00:06:59;18.88;;;4.82;;
42742;SDS011;28397;44.552;-0.848;2023-04-12T00:09:26;20.00;;;5.20;;
42742;SDS011;28397;44.552;-0.848;2023-04-12T00:11:58;20.60;;;5.05;;
42742;SDS011;28397;44.552;-0.848;2023-04-12T00:14:24;19.33;;;5.22;;
42742;SDS011;28397;44.552;-0.848;2023-04-12T00:16:50;22.15;;;5.50;;
42742;SDS011;28397;44.552;-0.848;2023-04-12T00:19:16;21.08;;;5.97;;
42742;SDS011;28397;44.552;-0.848;2023-04-12T00:21:42;19.67;;;5.43;;
42742;SDS011;28397;44.552;-0.848;2023-04-12T00:24:08;20.55;;;5.65;;
42742;SDS011;28397;44.552;-0.848;2023-04-12T00:26:34;23.95;;;5.60;;
42742;SDS011;28397;44.552;-0.848;2023-04-12T00:29:00;22.20;;;5.32;;
42742;SDS011;28397;44.552;-0.848;2023-04-12T00:31:26;20.25;;;5.40;;
42742;SDS011;28397;44.552;-0.848;2023-04-12T00:33:52;19.33;;;5.35;;
42742;SDS011;28397;44.552;-0.848;2023-04-12T00:36:17;22.42;;;5.53;;
42742;SDS011;28397;44.552;-0.848;2023-04-12T00:38:43;18.10;;;5.13;;
42742;SDS011;28397;44.552;-0.848;2023-04-12T00:41:13;23.48;;;5.45;;
42742;SDS011;28397;44.552;-0.848;2023-04-12T00:43:39;22.67;;;5.93;;
42742;SDS011;28397;44.552;-0.848;2023-04-12T00:46:08;15.32;;;5.18;;
42742;SDS011;28397;44.552;-0.848;2023-04-12T00:48:36;19.20;;;5.57;;
42742;SDS011;28397;44.552;-0.848;2023-04-12T00:51:04;17.45;;;5.63;;
42742;SDS011;28397;44.552;-0.848;2023-04-12T00:53:31;20.65;;;5.43;;
42742;SDS011;28397;44.552;-0.848;2023-04-12T00:55:58;18.77;;;5.43;;
42742;SDS011;28397;44.552;-0.848;2023-04-12T00:58:23;20.63;;;5.38;;
42742;SDS011;28397;44.552;-0.848;2023-04-12T01:00:49;26.67;;;6.15;;
42742;SDS011;28397;44.552;-0.848;2023-04-12T01:03:17;19.60;;;5.07;;
42742;SDS011;28397;44.552;-0.848;2023-04-12T01:06:08;25.77;;;6.28;;
42742;SDS011;28397;44.552;-0.848;2023-04-12T01:08:58;22.20;;;5.90;;
42742;SDS011;28397;44.552;-0.848;2023-04-12T01:17:12;27.02;;;6.13;;
42742;SDS011;28397;44.552;-0.848;2023-04-12T01:28:14;24.77;;;5.60;;
42742;SDS011;28397;44.552;-0.848;2023-04-12T01:30:43;26.35;;;6.53;;
42742;SDS011;28397;44.552;-0.848;2023-04-12T01:33:12;26.98;;;5.82;;
42742;SDS011;28397;44.552;-0.848;2023-04-12T01:35:40;24.17;;;6.30;;
42742;SDS011;28397;44.552;-0.848;2023-04-12T01:38:06;24.40;;;5.72;;
42742;SDS011;28397;44.552;-0.848;2023-04-12T01:40:34;20.98;;;5.47;;
42742;SDS011;28397;44.552;-0.848;2023-04-12T01:43:33;23.95;;;5.93;;
42742;SDS011;28397;44.552;-0.848;2023-04-12T01:45:52;20.65;;;5.10;;
42742;SDS011;28397;44.552;-0.848;2023-04-12T01:48:18;23.25;;;5.38;;
42742;SDS011;28397;44.552;-0.848;2023-04-12T01:51:02;19.08;;;5.53;;
42742;SDS011;28397;44.552;-0.848;2023-04-12T01:56:29;23.02;;;5.38;;
42742;SDS011;28397;44.552;-0.848;2023-04-12T01:58:56;20.63;;;5.20;;
42742;SDS011;28397;44.552;-0.848;2023-04-12T02:01:24;15.88;;;4.22;;
42742;SDS011;28397;44.552;-0.848;2023-04-12T02:03:53;24.33;;;5.75;;
42742;SDS011;28397;44.552;-0.848;2023-04-12T02:06:19;21.55;;;5.45;;
42742;SDS011;28397;44.552;-0.848;2023-04-12T02:08:46;21.27;;;5.25;;
42742;SDS011;28397;44.552;-0.848;2023-04-12T02:11:12;20.20;;;5.50;;
42742;SDS011;28397;44.552;-0.848;2023-04-12T02:13:38;21.00;;;5.15;;
42742;SDS011;28397;44.552;-0.848;2023-04-12T02:16:05;22.90;;;5.60;;
42742;SDS011;28397;44.552;-0.848;2023-04-12T02:18:32;20.83;;;5.63;;
42742;SDS011;28397;44.552;-0.848;2023-04-12T02:20:59;23.05;;;5.75;;
42742;SDS011;28397;44.552;-0.848;2023-04-12T02:23:25;24.92;;;5.53;;
42742;SDS011;28397;44.552;-0.848;2023-04-12T02:25:51;20.63;;;5.00;;
42742;SDS011;28397;44.552;-0.848;2023-04-12T02:28:17;19.00;;;5.30;;
42742;SDS011;28397;44.552;-0.848;2023-04-12T02:30:42;22.38;;;5.80;;
42742;SDS011;28397;44.552;-0.848;2023-04-12T02:33:09;21.30;;;5.63;;
42742;SDS011;28397;44.552;-0.848;2023-04-12T02:35:35;23.05;;;5.55;;
42742;SDS011;28397;44.552;-0.848;2023-04-12T02:38:01;21.55;;;5.82;;
42742;SDS011;28397;44.552;-0.848;2023-04-12T02:40:32;19.08;;;5.50;;
42742;SDS011;28397;44.552;-0.848;2023-04-12T02:42:59;20.50;;;5.03;;
42742;SDS011;28397;44.552;-0.848;2023-04-12T02:45:25;20.98;;;4.80;;
42742;SDS011;28397;44.552;-0.848;2023-04-12T02:47:51;18.52;;;4.93;;
42742;SDS011;28397;44.552;-0.848;2023-04-12T02:50:16;20.73;;;5.63;;
42742;SDS011;28397;44.552;-0.848;2023-04-12T02:52:42;19.80;;;4.97;;
42742;SDS011;28397;44.552;-0.848;2023-04-12T02:55:08;18.60;;;5.00;;
42742;SDS011;28397;44.552;-0.848;2023-04-12T02:57:34;19.25;;;5.18;;
42742;SDS011;28397;44.552;-0.848;2023-04-12T02:59:59;20.75;;;5.78;;
42742;SDS011;28397;44.552;-0.848;2023-04-12T03:02:25;22.08;;;5.78;;
42742;SDS011;28397;44.552;-0.848;2023-04-12T03:04:51;22.50;;;6.10;;
42742;SDS011;28397;44.552;-0.848;2023-04-12T03:07:19;18.80;;;5.35;;
42742;SDS011;28397;44.552;-0.848;2023-04-12T03:09:45;19.92;;;5.00;;
42742;SDS011;28397;44.552;-0.848;2023-04-12T03:12:12;18.50;;;5.10;;
42742;SDS011;28397;44.552;-0.848;2023-04-12T03:14:39;22.95;;;5.72;;
42742;SDS011;28397;44.552;-0.848;2023-04-12T03:17:05;19.88;;;5.55;;
42742;SDS011;28397;44.552;-0.848;2023-04-12T03:19:30;19.13;;;5.20;;
42742;SDS011;28397;44.552;-0.848;2023-04-12T03:21:58;15.65;;;4.90;;
42742;SDS011;28397;44.552;-0.848;2023-04-12T03:24:25;21.88;;;6.00;;
42742;SDS011;28397;44.552;-0.848;2023-04-12T03:26:51;15.77;;;5.32;;
42742;SDS011;28397;44.552;-0.848;2023-04-12T03:29:18;18.90;;;5.20;;
42742;SDS011;28397;44.552;-0.848;2023-04-12T03:31:44;17.73;;;4.97;;
42742;SDS011;28397;44.552;-0.848;2023-04-12T03:34:10;15.73;;;4.50;;
42742;SDS011;28397;44.552;-0.848;2023-04-12T03:36:35;18.10;;;5.07;;
42742;SDS011;28397;44.552;-0.848;2023-04-12T03:39:02;19.80;;;5.07;;
42742;SDS011;28397;44.552;-0.848;2023-04-12T03:41:28;17.20;;;5.53;;
42742;SDS011;28397;44.552;-0.848;2023-04-12T03:43:53;19.83;;;5.35;;
42742;SDS011;28397;44.552;-0.848;2023-04-12T03:46:19;17.88;;;4.70;;
42742;SDS011;28397;44.552;-0.848;2023-04-12T03:48:45;19.48;;;4.90;;
42742;SDS011;28397;44.552;-0.848;2023-04-12T03:51:10;21.85;;;5.18;;
42742;SDS011;28397;44.552;-0.848;2023-04-12T03:53:37;19.63;;;5.07;;
42742;SDS011;28397;44.552;-0.848;2023-04-12T03:56:03;17.10;;;4.80;;
42742;SDS011;28397;44.552;-0.848;2023-04-12T03:58:29;15.88;;;4.43;;
42742;SDS011;28397;44.552;-0.848;2023-04-12T04:00:57;20.13;;;4.90;;
42742;SDS011;28397;44.552;-0.848;2023-04-12T04:03:25;18.70;;;5.22;;
42742;SDS011;28397;44.552;-0.848;2023-04-12T04:05:53;16.23;;;5.07;;
42742;SDS011;28397;44.552;-0.848;2023-04-12T04:08:19;21.92;;;5.35;;
42742;SDS011;28397;44.552;-0.848;2023-04-12T04:10:45;16.83;;;4.30;;
42742;SDS011;28397;44.552;-0.848;2023-04-12T04:13:11;18.13;;;4.95;;
42742;SDS011;28397;44.552;-0.848;2023-04-12T04:15:37;18.83;;;5.25;;
42742;SDS011;28397;44.552;-0.848;2023-04-12T04:18:02;19.27;;;4.72;;
42742;SDS011;28397;44.552;-0.848;2023-04-12T04:20:28;18.13;;;4.93;;
42742;SDS011;28397;44.552;-0.848;2023-04-12T04:22:55;18.27;;;5.07;;
42742;SDS011;28397;44.552;-0.848;2023-04-12T04:25:21;21.95;;;4.97;;
42742;SDS011;28397;44.552;-0.848;2023-04-12T04:27:54;20.08;;;5.20;;
42742;SDS011;28397;44.552;-0.848;2023-04-12T04:30:20;19.70;;;5.15;;
42742;SDS011;28397;44.552;-0.848;2023-04-12T04:32:47;20.02;;;5.45;;
42742;SDS011;28397;44.552;-0.848;2023-04-12T04:35:13;20.50;;;5.20;;
42742;SDS011;28397;44.552;-0.848;2023-04-12T04:37:39;20.27;;;5.75;;
42742;SDS011;28397;44.552;-0.848;2023-04-12T04:40:05;21.65;;;5.18;;
42742;SDS011;28397;44.552;-0.848;2023-04-12T04:42:41;21.80;;;5.40;;
42742;SDS011;28397;44.552;-0.848;2023-04-12T04:45:07;18.58;;;4.88;;
42742;SDS011;28397;44.552;-0.848;2023-04-12T04:47:39;21.75;;;5.43;;
42742;SDS011;28397;44.552;-0.848;2023-04-12T04:50:05;23.80;;;5.65;;
42742;SDS011;28397;44.552;-0.848;2023-04-12T04:52:31;17.60;;;5.63;;
42742;SDS011;28397;44.552;-0.848;2023-04-12T04:54:57;24.20;;;5.90;;
42742;SDS011;28397;44.552;-0.848;2023-04-12T04:57:23;17.05;;;4.95;;
42742;SDS011;28397;44.552;-0.848;2023-04-12T04:59:50;20.92;;;5.82;;
42742;SDS011;28397;44.552;-0.848;2023-04-12T05:02:16;24.45;;;5.85;;
42742;SDS011;28397;44.552;-0.848;2023-04-12T05:04:42;22.23;;;5.93;;
42742;SDS011;28397;44.552;-0.848;2023-04-12T05:07:07;21.33;;;6.30;;
42742;SDS011;28397;44.552;-0.848;2023-04-12T05:09:33;20.27;;;6.07;;
42742;SDS011;28397;44.552;-0.848;2023-04-12T05:11:59;20.20;;;6.00;;
42742;SDS011;28397;44.552;-0.848;2023-04-12T05:14:25;20.25;;;6.03;;
42742;SDS011;28397;44.552;-0.848;2023-04-12T05:16:50;20.15;;;5.60;;
42742;SDS011;28397;44.552;-0.848;2023-04-12T05:19:16;19.85;;;5.78;;
42742;SDS011;28397;44.552;-0.848;2023-04-12T05:21:42;19.23;;;5.68;;
42742;SDS011;28397;44.552;-0.848;2023-04-12T05:24:07;17.40;;;5.53;;
42742;SDS011;28397;44.552;-0.848;2023-04-12T05:26:33;19.55;;;5.82;;
42742;SDS011;28397;44.552;-0.848;2023-04-12T05:28:59;16.42;;;5.82;;
42742;SDS011;28397;44.552;-0.848;2023-04-12T05:31:25;19.65;;;5.55;;
42742;SDS011;28397;44.552;-0.848;2023-04-12T05:33:52;17.05;;;5.35;;
42742;SDS011;28397;44.552;-0.848;2023-04-12T05:36:21;20.42;;;5.63;;
42742;SDS011;28397;44.552;-0.848;2023-04-12T05:38:46;21.23;;;5.60;;
42742;SDS011;28397;44.552;-0.848;2023-04-12T05:41:12;20.30;;;5.03;;
42742;SDS011;28397;44.552;-0.848;2023-04-12T05:43:38;20.27;;;5.82;;
42742;SDS011;28397;44.552;-0.848;2023-04-12T05:46:04;19.15;;;5.63;;
42742;SDS011;28397;44.552;-0.848;2023-04-12T05:48:31;18.90;;;5.22;;
42742;SDS011;28397;44.552;-0.848;2023-04-12T05:50:57;21.20;;;5.55;;
42742;SDS011;28397;44.552;-0.848;2023-04-12T05:53:23;19.33;;;5.40;;
42742;SDS011;28397;44.552;-0.848;2023-04-12T05:55:49;16.50;;;5.18;;
42742;SDS011;28397;44.552;-0.848;2023-04-12T05:58:15;17.90;;;5.22;;
42742;SDS011;28397;44.552;-0.848;2023-04-12T06:00:41;16.45;;;5.28;;
42742;SDS011;28397;44.552;-0.848;2023-04-12T06:03:09;14.82;;;4.60;;
42742;SDS011;28397;44.552;-0.848;2023-04-12T06:05:35;12.82;;;4.00;;
42742;SDS011;28397;44.552;-0.848;2023-04-12T06:08:01;12.55;;;4.40;;
42742;SDS011;28397;44.552;-0.848;2023-04-12T06:10:29;14.05;;;3.88;;
42742;SDS011;28397;44.552;-0.848;2023-04-12T06:12:55;11.52;;;3.42;;
42742;SDS011;28397;44.552;-0.848;2023-04-12T06:15:21;12.57;;;3.78;;
42742;SDS011;28397;44.552;-0.848;2023-04-12T06:17:46;11.57;;;3.95;;
42742;SDS011;28397;44.552;-0.848;2023-04-12T06:20:12;9.02;;;3.33;;
42742;SDS011;28397;44.552;-0.848;2023-04-12T06:22:38;13.93;;;4.05;;
42742;SDS011;28397;44.552;-0.848;2023-04-12T06:25:04;14.23;;;3.72;;
42742;SDS011;28397;44.552;-0.848;2023-04-12T06:27:30;18.02;;;4.13;;
42742;SDS011;28397;44.552;-0.848;2023-04-12T06:29:56;14.88;;;3.97;;
42742;SDS011;28397;44.552;-0.848;2023-04-12T06:32:22;14.93;;;4.60;;
42742;SDS011;28397;44.552;-0.848;2023-04-12T06:34:47;13.52;;;3.83;;
42742;SDS011;28397;44.552;-0.848;2023-04-12T06:37:13;14.27;;;4.07;;
42742;SDS011;28397;44.552;-0.848;2023-04-12T06:39:39;15.18;;;4.20;;
42742;SDS011;28397;44.552;-0.848;2023-04-12T06:42:05;16.45;;;4.65;;
42742;SDS011;28397;44.552;-0.848;2023-04-12T06:44:31;19.40;;;5.45;;
42742;SDS011;28397;44.552;-0.848;2023-04-12T06:46:57;21.98;;;5.57;;
42742;SDS011;28397;44.552;-0.848;2023-04-12T06:49:23;22.92;;;5.57;;
42742;SDS011;28397;44.552;-0.848;2023-04-12T06:51:49;26.92;;;6.25;;
42742;SDS011;28397;44.552;-0.848;2023-04-12T06:54:15;23.13;;;5.47;;
42742;SDS011;28397;44.552;-0.848;2023-04-12T06:56:41;27.20;;;6.18;;
42742;SDS011;28397;44.552;-0.848;2023-04-12T06:59:06;26.92;;;6.65;;
42742;SDS011;28397;44.552;-0.848;2023-04-12T07:01:33;25.27;;;5.80;;
42742;SDS011;28397;44.552;-0.848;2023-04-12T07:03:59;27.05;;;6.85;;
42742;SDS011;28397;44.552;-0.848;2023-04-12T07:06:26;26.38;;;6.47;;
42742;SDS011;28397;44.552;-0.848;2023-04-12T07:08:52;26.88;;;7.18;;
42742;SDS011;28397;44.552;-0.848;2023-04-12T07:11:18;31.67;;;7.40;;
42742;SDS011;28397;44.552;-0.848;2023-04-12T07:13:46;30.75;;;7.43;;
42742;SDS011;28397;44.552;-0.848;2023-04-12T07:16:12;31.02;;;7.13;;
42742;SDS011;28397;44.552;-0.848;2023-04-12T07:18:38;31.75;;;7.15;;
42742;SDS011;28397;44.552;-0.848;2023-04-12T07:21:04;33.97;;;7.07;;
42742;SDS011;28397;44.552;-0.848;2023-04-12T07:23:30;30.80;;;6.53;;
42742;SDS011;28397;44.552;-0.848;2023-04-12T07:25:59;34.00;;;7.57;;
42742;SDS011;28397;44.552;-0.848;2023-04-12T07:28:25;28.90;;;6.57;;
42742;SDS011;28397;44.552;-0.848;2023-04-12T07:30:51;27.77;;;6.97;;
42742;SDS011;28397;44.552;-0.848;2023-04-12T07:33:17;32.05;;;7.03;;
42742;SDS011;28397;44.552;-0.848;2023-04-12T07:35:43;31.42;;;7.68;;
42742;SDS011;28397;44.552;-0.848;2023-04-12T07:38:10;35.25;;;7.82;;
42742;SDS011;28397;44.552;-0.848;2023-04-12T07:40:36;31.15;;;7.15;;
42742;SDS011;28397;44.552;-0.848;2023-04-12T07:43:01;34.22;;;7.85;;
42742;SDS011;28397;44.552;-0.848;2023-04-12T07:45:27;34.28;;;7.32;;
42742;SDS011;28397;44.552;-0.848;2023-04-12T07:47:53;34.28;;;7.28;;
42742;SDS011;28397;44.552;-0.848;2023-04-12T07:50:18;29.13;;;6.97;;
42742;SDS011;28397;44.552;-0.848;2023-04-12T07:52:44;33.22;;;7.88;;
42742;SDS011;28397;44.552;-0.848;2023-04-12T07:55:10;32.45;;;7.18;;
42742;SDS011;28397;44.552;-0.848;2023-04-12T07:57:36;27.38;;;6.82;;
42742;SDS011;28397;44.552;-0.848;2023-04-12T08:00:02;34.63;;;7.95;;
42742;SDS011;28397;44.552;-0.848;2023-04-12T08:02:29;33.85;;;7.72;;
42742;SDS011;28397;44.552;-0.848;2023-04-12T08:04:55;42.30;;;8.27;;
42742;SDS011;28397;44.552;-0.848;2023-04-12T08:07:21;34.83;;;7.47;;
42742;SDS011;28397;44.552;-0.848;2023-04-12T08:09:48;34.47;;;8.07;;
42742;SDS011;28397;44.552;-0.848;2023-04-12T08:12:14;33.08;;;7.70;;
42742;SDS011;28397;44.552;-0.848;2023-04-12T08:14:40;32.05;;;6.93;;
42742;SDS011;28397;44.552;-0.848;2023-04-12T08:17:05;34.30;;;7.45;;
42742;SDS011;28397;44.552;-0.848;2023-04-12T08:19:31;28.38;;;6.57;;
42742;SDS011;28397;44.552;-0.848;2023-04-12T08:21:56;24.15;;;5.93;;
42742;SDS011;28397;44.552;-0.848;2023-04-12T08:24:22;23.95;;;5.90;;
42742;SDS011;28397;44.552;-0.848;2023-04-12T08:26:49;25.58;;;5.50;;
42742;SDS011;28397;44.552;-0.848;2023-04-12T08:29:15;21.33;;;5.00;;
42742;SDS011;28397;44.552;-0.848;2023-04-12T08:31:41;20.85;;;5.28;;
42742;SDS011;28397;44.552;-0.848;2023-04-12T08:34:06;18.55;;;5.32;;
42742;SDS011;28397;44.552;-0.848;2023-04-12T08:36:32;21.05;;;5.10;;
42742;SDS011;28397;44.552;-0.848;2023-04-12T08:38:58;16.08;;;3.97;;
42742;SDS011;28397;44.552;-0.848;2023-04-12T08:41:24;12.13;;;3.45;;
42742;SDS011;28397;44.552;-0.848;2023-04-12T08:43:50;10.07;;;2.78;;
42742;SDS011;28397;44.552;-0.848;2023-04-12T08:46:16;9.63;;;2.22;;
42742;SDS011;28397;44.552;-0.848;2023-04-12T08:48:43;7.70;;;1.88;;
42742;SDS011;28397;44.552;-0.848;2023-04-12T08:51:12;9.63;;;2.63;;
42742;SDS011;28397;44.552;-0.848;2023-04-12T08:53:41;9.02;;;2.38;;
42742;SDS011;28397;44.552;-0.848;2023-04-12T08:56:11;10.00;;;2.83;;
42742;SDS011;28397;44.552;-0.848;2023-04-12T08:58:40;6.40;;;2.05;;
42742;SDS011;28397;44.552;-0.848;2023-04-12T09:01:13;10.50;;;2.90;;
42742;SDS011;28397;44.552;-0.848;2023-04-12T09:03:43;16.92;;;2.90;;
42742;SDS011;28397;44.552;-0.848;2023-04-12T09:06:10;16.17;;;2.72;;
42742;SDS011;28397;44.552;-0.848;2023-04-12T09:08:48;10.10;;;2.80;;
42742;SDS011;28397;44.552;-0.848;2023-04-12T09:11:27;16.52;;;2.90;;
42742;SDS011;28397;44.552;-0.848;2023-04-12T09:13:54;14.00;;;2.70;;
42742;SDS011;28397;44.552;-0.848;2023-04-12T09:17:03;15.23;;;2.90;;
42742;SDS011;28397;44.552;-0.848;2023-04-12T09:19:09;15.48;;;3.08;;
42742;SDS011;28397;44.552;-0.848;2023-04-12T09:21:35;11.85;;;2.63;;
42742;SDS011;28397;44.552;-0.848;2023-04-12T09:24:02;11.00;;;2.90;;
42742;SDS011;28397;44.552;-0.848;2023-04-12T09:26:28;13.25;;;3.00;;
42742;SDS011;28397;44.552;-0.848;2023-04-12T09:28:55;15.57;;;3.25;;
42742;SDS011;28397;44.552;-0.848;2023-04-12T09:31:21;15.35;;;3.15;;
42742;SDS011;28397;44.552;-0.848;2023-04-12T09:33:47;18.40;;;3.85;;
42742;SDS011;28397;44.552;-0.848;2023-04-12T09:36:12;16.48;;;3.47;;
42742;SDS011;28397;44.552;-0.848;2023-04-12T09:38:39;18.35;;;3.55;;
42742;SDS011;28397;44.552;-0.848;2023-04-12T09:41:16;17.52;;;3.95;;
42742;SDS011;28397;44.552;-0.848;2023-04-12T09:43:43;16.02;;;4.22;;
42742;SDS011;28397;44.552;-0.848;2023-04-12T09:46:10;15.82;;;4.05;;
42742;SDS011;28397;44.552;-0.848;2023-04-12T09:48:40;19.10;;;3.63;;
42742;SDS011;28397;44.552;-0.848;2023-04-12T09:51:12;16.52;;;3.72;;
42742;SDS011;28397;44.552;-0.848;2023-04-12T09:53:38;20.17;;;4.15;;
42742;SDS011;28397;44.552;-0.848;2023-04-12T09:56:09;15.82;;;3.67;;
42742;SDS011;28397;44.552;-0.848;2023-04-12T09:58:37;21.30;;;4.85;;
42742;SDS011;28397;44.552;-0.848;2023-04-12T10:01:04;21.23;;;4.18;;
42742;SDS011;28397;44.552;-0.848;2023-04-12T10:03:33;23.52;;;4.63;;
42742;SDS011;28397;44.552;-0.848;2023-04-12T10:05:59;25.10;;;5.38;;
42742;SDS011;28397;44.552;-0.848;2023-04-12T10:08:29;19.55;;;4.25;;
42742;SDS011;28397;44.552;-0.848;2023-04-12T10:10:55;17.02;;;4.43;;
42742;SDS011;28397;44.552;-0.848;2023-04-12T10:13:22;15.63;;;3.55;;
42742;SDS011;28397;44.552;-0.848;2023-04-12T10:15:50;15.88;;;3.75;;
42742;SDS011;28397;44.552;-0.848;2023-04-12T10:18:17;21.38;;;3.95;;
42742;SDS011;28397;44.552;-0.848;2023-04-12T10:20:44;17.75;;;4.18;;
42742;SDS011;28397;44.552;-0.848;2023-04-12T10:23:11;25.23;;;4.53;;
42742;SDS011;28397;44.552;-0.848;2023-04-12T10:25:39;23.05;;;4.50;;
42742;SDS011;28397;44.552;-0.848;2023-04-12T10:28:15;26.13;;;5.22;;
42742;SDS011;28397;44.552;-0.848;2023-04-12T10:30:42;20.17;;;4.00;;
42742;SDS011;28397;44.552;-0.848;2023-04-12T10:38:29;19.35;;;3.78;;
42742;SDS011;28397;44.552;-0.848;2023-04-12T10:41:12;16.67;;;3.92;;
42742;SDS011;28397;44.552;-0.848;2023-04-12T10:43:46;16.35;;;3.50;;
42742;SDS011;28397;44.552;-0.848;2023-04-12T10:49:12;13.10;;;3.35;;
42742;SDS011;28397;44.552;-0.848;2023-04-12T10:51:39;15.18;;;3.30;;
42742;SDS011;28397;44.552;-0.848;2023-04-12T10:56:50;9.82;;;2.63;;
42742;SDS011;28397;44.552;-0.848;2023-04-12T10:59:17;9.30;;;2.53;;
42742;SDS011;28397;44.552;-0.848;2023-04-12T11:02:06;14.65;;;2.80;;
42742;SDS011;28397;44.552;-0.848;2023-04-12T11:04:34;10.10;;;2.58;;
42742;SDS011;28397;44.552;-0.848;2023-04-12T11:07:01;10.88;;;2.70;;
42742;SDS011;28397;44.552;-0.848;2023-04-12T11:19:40;11.13;;;2.72;;
42742;SDS011;28397;44.552;-0.848;2023-04-12T11:22:14;9.10;;;2.45;;
42742;SDS011;28397;44.552;-0.848;2023-04-12T11:24:45;9.13;;;2.60;;
42742;SDS011;28397;44.552;-0.848;2023-04-12T11:27:12;7.93;;;2.38;;
42742;SDS011;28397;44.552;-0.848;2023-04-12T11:29:40;10.35;;;2.50;;
42742;SDS011;28397;44.552;-0.848;2023-04-12T11:32:09;9.05;;;2.88;;
42742;SDS011;28397;44.552;-0.848;2023-04-12T11:34:39;13.32;;;2.80;;
42742;SDS011;28397;44.552;-0.848;2023-04-12T11:37:06;12.73;;;2.55;;
42742;SDS011;28397;44.552;-0.848;2023-04-12T11:39:33;9.18;;;2.42;;
42742;SDS011;28397;44.552;-0.848;2023-04-12T11:42:18;11.23;;;2.88;;
42742;SDS011;28397;44.552;-0.848;2023-04-12T11:44:46;11.75;;;3.05;;
42742;SDS011;28397;44.552;-0.848;2023-04-12T11:47:13;12.20;;;3.00;;
42742;SDS011;28397;44.552;-0.848;2023-04-12T11:49:50;12.63;;;3.30;;
42742;SDS011;28397;44.552;-0.848;2023-04-12T11:52:17;11.18;;;2.60;;
42742;SDS011;28397;44.552;-0.848;2023-04-12T11:54:44;11.65;;;2.53;;
42742;SDS011;28397;44.552;-0.848;2023-04-12T11:57:12;13.00;;;3.10;;
42742;SDS011;28397;44.552;-0.848;2023-04-12T11:59:41;12.23;;;2.55;;
42742;SDS011;28397;44.552;-0.848;2023-04-12T12:02:09;11.70;;;2.67;;
42742;SDS011;28397;44.552;-0.848;2023-04-12T12:04:34;13.75;;;3.00;;
42742;SDS011;28397;44.552;-0.848;2023-04-12T12:07:01;18.10;;;3.63;;
42742;SDS011;28397;44.552;-0.848;2023-04-12T12:09:27;12.38;;;3.03;;
42742;SDS011;28397;44.552;-0.848;2023-04-12T12:11:54;14.02;;;3.00;;
42742;SDS011;28397;44.552;-0.848;2023-04-12T12:14:21;11.93;;;2.92;;
42742;SDS011;28397;44.552;-0.848;2023-04-12T12:16:57;14.15;;;3.60;;
42742;SDS011;28397;44.552;-0.848;2023-04-12T12:19:26;12.20;;;2.97;;
42742;SDS011;28397;44.552;-0.848;2023-04-12T12:21:54;15.98;;;3.65;;
42742;SDS011;28397;44.552;-0.848;2023-04-12T12:24:45;11.70;;;3.25;;
42742;SDS011;28397;44.552;-0.848;2023-04-12T12:27:11;12.10;;;3.60;;
42742;SDS011;28397;44.552;-0.848;2023-04-12T12:29:41;11.05;;;3.17;;
42742;SDS011;28397;44.552;-0.848;2023-04-12T12:32:10;12.82;;;3.30;;
42742;SDS011;28397;44.552;-0.848;2023-04-12T12:34:37;15.05;;;3.10;;
42742;SDS011;28397;44.552;-0.848;2023-04-12T12:37:08;12.27;;;3.03;;
42742;SDS011;28397;44.552;-0.848;2023-04-12T12:39:36;11.80;;;3.05;;
42742;SDS011;28397;44.552;-0.848;2023-04-12T12:42:02;13.45;;;2.67;;
42742;SDS011;28397;44.552;-0.848;2023-04-12T12:44:30;14.40;;;3.35;;
42742;SDS011;28397;44.552;-0.848;2023-04-12T12:47:00;12.02;;;3.03;;
42742;SDS011;28397;44.552;-0.848;2023-04-12T12:49:26;13.73;;;3.05;;
42742;SDS011;28397;44.552;-0.848;2023-04-12T12:51:52;11.07;;;3.22;;
42742;SDS011;28397;44.552;-0.848;2023-04-12T12:54:18;15.25;;;3.25;;
42742;SDS011;28397;44.552;-0.848;2023-04-12T12:56:43;12.13;;;3.08;;
42742;SDS011;28397;44.552;-0.848;2023-04-12T12:59:10;12.65;;;3.30;;
42742;SDS011;28397;44.552;-0.848;2023-04-12T13:01:35;17.65;;;3.42;;
42742;SDS011;28397;44.552;-0.848;2023-04-12T13:04:01;14.02;;;3.70;;
42742;SDS011;28397;44.552;-0.848;2023-04-12T13:06:27;15.30;;;3.88;;
42742;SDS011;28397;44.552;-0.848;2023-04-12T13:08:53;16.50;;;4.00;;
42742;SDS011;28397;44.552;-0.848;2023-04-12T13:11:19;14.20;;;3.72;;
42742;SDS011;28397;44.552;-0.848;2023-04-12T13:13:45;12.60;;;3.45;;
42742;SDS011;28397;44.552;-0.848;2023-04-12T13:16:10;11.45;;;3.17;;
42742;SDS011;28397;44.552;-0.848;2023-04-12T13:18:36;12.15;;;3.15;;
42742;SDS011;28397;44.552;-0.848;2023-04-12T13:21:02;13.05;;;3.10;;
42742;SDS011;28397;44.552;-0.848;2023-04-12T13:23:28;16.73;;;4.13;;
42742;SDS011;28397;44.552;-0.848;2023-04-12T13:25:53;14.40;;;3.78;;
42742;SDS011;28397;44.552;-0.848;2023-04-12T13:28:19;15.68;;;3.90;;
42742;SDS011;28397;44.552;-0.848;2023-04-12T13:30:45;15.43;;;3.50;;
42742;SDS011;28397;44.552;-0.848;2023-04-12T13:33:12;17.70;;;3.92;;
42742;SDS011;28397;44.552;-0.848;2023-04-12T13:35:38;13.57;;;3.13;;
42742;SDS011;28397;44.552;-0.848;2023-04-12T13:38:04;12.40;;;3.20;;
42742;SDS011;28397;44.552;-0.848;2023-04-12T13:40:30;19.08;;;3.60;;
42742;SDS011;28397;44.552;-0.848;2023-04-12T13:42:55;13.77;;;2.90;;
42742;SDS011;28397;44.552;-0.848;2023-04-12T13:45:21;12.32;;;3.42;;
42742;SDS011;28397;44.552;-0.848;2023-04-12T13:47:47;16.77;;;3.70;;
42742;SDS011;28397;44.552;-0.848;2023-04-12T13:50:12;13.60;;;3.70;;
42742;SDS011;28397;44.552;-0.848;2023-04-12T13:52:38;15.45;;;3.72;;
42742;SDS011;28397;44.552;-0.848;2023-04-12T13:55:04;11.68;;;3.13;;
42742;SDS011;28397;44.552;-0.848;2023-04-12T13:57:32;16.27;;;4.00;;
42742;SDS011;28397;44.552;-0.848;2023-04-12T13:59:59;12.88;;;3.40;;
42742;SDS011;28397;44.552;-0.848;2023-04-12T14:02:24;13.98;;;3.40;;
42742;SDS011;28397;44.552;-0.848;2023-04-12T14:04:51;12.02;;;3.30;;
42742;SDS011;28397;44.552;-0.848;2023-04-12T14:07:18;15.38;;;3.67;;
42742;SDS011;28397;44.552;-0.848;2023-04-12T14:09:43;12.82;;;3.42;;
42742;SDS011;28397;44.552;-0.848;2023-04-12T14:12:09;14.30;;;3.55;;
42742;SDS011;28397;44.552;-0.848;2023-04-12T14:14:35;11.68;;;3.75;;
42742;SDS011;28397;44.552;-0.848;2023-04-12T14:17:01;14.05;;;3.72;;
42742;SDS011;28397;44.552;-0.848;2023-04-12T14:19:27;15.55;;;3.92;;
42742;SDS011;28397;44.552;-0.848;2023-04-12T14:21:53;12.30;;;3.30;;
42742;SDS011;28397;44.552;-0.848;2023-04-12T14:24:19;16.63;;;4.07;;
42742;SDS011;28397;44.552;-0.848;2023-04-12T14:26:45;15.55;;;3.90;;
42742;SDS011;28397;44.552;-0.848;2023-04-12T14:29:12;14.52;;;3.60;;
42742;SDS011;28397;44.552;-0.848;2023-04-12T14:31:39;13.50;;;3.47;;
42742;SDS011;28397;44.552;-0.848;2023-04-12T14:34:05;15.25;;;3.47;;
42742;SDS011;28397;44.552;-0.848;2023-04-12T14:36:32;13.95;;;3.97;;
42742;SDS011;28397;44.552;-0.848;2023-04-12T14:38:58;13.68;;;3.97;;
42742;SDS011;28397;44.552;-0.848;2023-04-12T14:41:25;13.38;;;3.38;;
42742;SDS011;28397;44.552;-0.848;2023-04-12T14:43:51;10.27;;;3.00;;
42742;SDS011;28397;44.552;-0.848;2023-04-12T14:46:16;12.20;;;3.40;;
42742;SDS011;28397;44.552;-0.848;2023-04-12T14:48:42;11.15;;;3.45;;
42742;SDS011;28397;44.552;-0.848;2023-04-12T14:51:11;16.85;;;4.00;;
42742;SDS011;28397;44.552;-0.848;2023-04-12T14:53:37;14.98;;;3.85;;
42742;SDS011;28397;44.552;-0.848;2023-04-12T14:56:02;15.15;;;4.15;;
42742;SDS011;28397;44.552;-0.848;2023-04-12T14:58:28;16.92;;;4.22;;
42742;SDS011;28397;44.552;-0.848;2023-04-12T15:00:55;20.77;;;4.63;;